sensor_id;sensor_type;location;lat;lon;timestamp;P1;durP1;ratioP1;P2;durP2;ratioP2
7883;SDS011;3987;51.458;7.238;2023-08-08T00:05:27;1.80;;;1.70;;
7883;SDS011;3987;51.458;7.238;2023-08-08T00:20:27;1.77;;;1.67;;
7883;SDS011;3987;51.458;7.238;2023-08-08T00:35:28;1.90;;;1.80;;
7883;SDS011;3987;51.458;7.238;2023-08-08T00:50:28;2.00;;;1.90;;
7883;SDS011;3987;51.458;7.238;2023-08-08T01:05:32;2.00;;;1.60;;
7883;SDS011;3987;51.458;7.238;2023-08-08T01:20:36;2.30;;;2.10;;
7883;SDS011;3987;51.458;7.238;2023-08-08T01:35:38;3.23;;;2.00;;
7883;SDS011;3987;51.458;7.238;2023-08-08T01:50:42;4.23;;;2.33;;
7883;SDS011;3987;51.458;7.238;2023-08-08T02:05:43;2.93;;;1.90;;
7883;SDS011;3987;51.458;7.238;2023-08-08T02:20:43;2.40;;;2.30;;
7883;SDS011;3987;51.458;7.238;2023-08-08T02:35:44;2.23;;;2.13;;
7883;SDS011;3987;51.458;7.238;2023-08-08T02:50:44;2.77;;;2.57;;
7883;SDS011;3987;51.458;7.238;2023-08-08T03:05:45;3.03;;;2.28;;
7883;SDS011;3987;51.458;7.238;2023-08-08T03:20:47;2.63;;;2.40;;
7883;SDS011;3987;51.458;7.238;2023-08-08T03:35:48;2.80;;;2.70;;
7883;SDS011;3987;51.458;7.238;2023-08-08T03:50:50;3.63;;;3.53;;
7883;SDS011;3987;51.458;7.238;2023-08-08T04:05:50;5.27;;;4.97;;
7883;SDS011;3987;51.458;7.238;2023-08-08T04:20:51;5.50;;;5.03;;
7883;SDS011;3987;51.458;7.238;2023-08-08T04:35:51;5.73;;;5.23;;
7883;SDS011;3987;51.458;7.238;2023-08-08T04:50:52;6.73;;;6.23;;
7883;SDS011;3987;51.458;7.238;2023-08-08T05:05:52;10.20;;;8.03;;
7883;SDS011;3987;51.458;7.238;2023-08-08T05:20:53;13.37;;;11.33;;
7883;SDS011;3987;51.458;7.238;2023-08-08T05:35:53;13.43;;;12.10;;
7883;SDS011;3987;51.458;7.238;2023-08-08T05:50:53;17.20;;;12.63;;
7883;SDS011;3987;51.458;7.238;2023-08-08T06:05:54;18.07;;;14.67;;
7883;SDS011;3987;51.458;7.238;2023-08-08T06:20:54;23.87;;;15.17;;
7883;SDS011;3987;51.458;7.238;2023-08-08T06:35:56;26.17;;;15.50;;
7883;SDS011;3987;51.458;7.238;2023-08-08T07:06:00;21.87;;;15.17;;
7883;SDS011;3987;51.458;7.238;2023-08-08T07:21:00;23.00;;;16.07;;
7883;SDS011;3987;51.458;7.238;2023-08-08T07:36:01;15.90;;;13.63;;
7883;SDS011;3987;51.458;7.238;2023-08-08T07:51:01;13.13;;;11.43;;
7883;SDS011;3987;51.458;7.238;2023-08-08T08:06:01;11.00;;;8.67;;
7883;SDS011;3987;51.458;7.238;2023-08-08T08:21:03;7.23;;;6.60;;
7883;SDS011;3987;51.458;7.238;2023-08-08T08:36:04;6.40;;;5.57;;
7883;SDS011;3987;51.458;7.238;2023-08-08T08:51:05;6.47;;;4.43;;
7883;SDS011;3987;51.458;7.238;2023-08-08T09:06:06;3.97;;;3.67;;
7883;SDS011;3987;51.458;7.238;2023-08-08T09:21:06;3.30;;;3.00;;
7883;SDS011;3987;51.458;7.238;2023-08-08T09:36:07;5.30;;;2.23;;
7883;SDS011;3987;51.458;7.238;2023-08-08T09:51:08;2.57;;;2.37;;
7883;SDS011;3987;51.458;7.238;2023-08-08T10:06:08;6.90;;;2.77;;
7883;SDS011;3987;51.458;7.238;2023-08-08T10:21:09;3.38;;;2.63;;
7883;SDS011;3987;51.458;7.238;2023-08-08T10:36:10;2.70;;;2.60;;
7883;SDS011;3987;51.458;7.238;2023-08-08T10:51:13;2.93;;;2.60;;
7883;SDS011;3987;51.458;7.238;2023-08-08T11:06:14;3.37;;;2.73;;
7883;SDS011;3987;51.458;7.238;2023-08-08T11:21:14;3.30;;;2.63;;
7883;SDS011;3987;51.458;7.238;2023-08-08T11:36:15;4.07;;;2.23;;
7883;SDS011;3987;51.458;7.238;2023-08-08T11:51:16;2.93;;;2.27;;
7883;SDS011;3987;51.458;7.238;2023-08-08T12:06:19;2.50;;;2.30;;
7883;SDS011;3987;51.458;7.238;2023-08-08T12:21:19;2.47;;;1.90;;
7883;SDS011;3987;51.458;7.238;2023-08-08T12:36:20;3.10;;;2.23;;
7883;SDS011;3987;51.458;7.238;2023-08-08T12:51:20;2.50;;;2.30;;
7883;SDS011;3987;51.458;7.238;2023-08-08T13:06:21;2.67;;;2.07;;
7883;SDS011;3987;51.458;7.238;2023-08-08T13:21:21;3.57;;;2.37;;
7883;SDS011;3987;51.458;7.238;2023-08-08T13:36:21;6.00;;;2.47;;
7883;SDS011;3987;51.458;7.238;2023-08-08T13:51:22;1.90;;;1.80;;
7883;SDS011;3987;51.458;7.238;2023-08-08T14:06:22;3.17;;;2.17;;
7883;SDS011;3987;51.458;7.238;2023-08-08T14:21:23;4.90;;;2.40;;
7883;SDS011;3987;51.458;7.238;2023-08-08T14:36:23;1.53;;;1.50;;
7883;SDS011;3987;51.458;7.238;2023-08-08T14:51:24;1.70;;;1.60;;
7883;SDS011;3987;51.458;7.238;2023-08-08T15:06:24;1.63;;;1.40;;
7883;SDS011;3987;51.458;7.238;2023-08-08T15:21:24;1.33;;;1.33;;
7883;SDS011;3987;51.458;7.238;2023-08-08T15:36:25;1.33;;;1.23;;
7883;SDS011;3987;51.458;7.238;2023-08-08T15:51:26;0.57;;;0.57;;
7883;SDS011;3987;51.458;7.238;2023-08-08T16:06:26;1.30;;;0.60;;
7883;SDS011;3987;51.458;7.238;2023-08-08T16:21:27;3.60;;;1.20;;
7883;SDS011;3987;51.458;7.238;2023-08-08T16:36:27;1.17;;;0.50;;
7883;SDS011;3987;51.458;7.238;2023-08-08T16:51:28;0.67;;;0.67;;
7883;SDS011;3987;51.458;7.238;2023-08-08T17:06:28;0.80;;;0.80;;
7883;SDS011;3987;51.458;7.238;2023-08-08T17:21:30;0.97;;;0.97;;
7883;SDS011;3987;51.458;7.238;2023-08-08T17:36:31;1.10;;;0.90;;
7883;SDS011;3987;51.458;7.238;2023-08-08T17:51:33;1.07;;;1.07;;
7883;SDS011;3987;51.458;7.238;2023-08-08T18:06:33;1.43;;;1.00;;
7883;SDS011;3987;51.458;7.238;2023-08-08T18:21:34;2.70;;;2.20;;
7883;SDS011;3987;51.458;7.238;2023-08-08T18:36:35;1.67;;;1.57;;
7883;SDS011;3987;51.458;7.238;2023-08-08T18:51:36;2.80;;;2.70;;
7883;SDS011;3987;51.458;7.238;2023-08-08T19:06:39;2.87;;;2.87;;
7883;SDS011;3987;51.458;7.238;2023-08-08T19:21:40;3.73;;;3.53;;
7883;SDS011;3987;51.458;7.238;2023-08-08T19:36:40;3.93;;;3.73;;
7883;SDS011;3987;51.458;7.238;2023-08-08T19:51:40;4.43;;;4.27;;
7883;SDS011;3987;51.458;7.238;2023-08-08T20:06:41;4.80;;;4.67;;
7883;SDS011;3987;51.458;7.238;2023-08-08T20:21:41;4.80;;;4.50;;
7883;SDS011;3987;51.458;7.238;2023-08-08T20:36:42;5.90;;;5.63;;
7883;SDS011;3987;51.458;7.238;2023-08-08T20:51:42;8.13;;;7.83;;
7883;SDS011;3987;51.458;7.238;2023-08-08T21:06:45;13.30;;;10.97;;
7883;SDS011;3987;51.458;7.238;2023-08-08T21:21:45;8.37;;;8.07;;
7883;SDS011;3987;51.458;7.238;2023-08-08T21:36:45;7.00;;;6.87;;
7883;SDS011;3987;51.458;7.238;2023-08-08T21:51:46;5.57;;;5.37;;
7883;SDS011;3987;51.458;7.238;2023-08-08T22:06:47;3.93;;;3.83;;
7883;SDS011;3987;51.458;7.238;2023-08-08T22:21:50;4.63;;;4.37;;
7883;SDS011;3987;51.458;7.238;2023-08-08T22:36:50;3.00;;;2.93;;
7883;SDS011;3987;51.458;7.238;2023-08-08T22:51:50;3.47;;;3.37;;
7883;SDS011;3987;51.458;7.238;2023-08-08T23:06:51;2.87;;;2.53;;
7883;SDS011;3987;51.458;7.238;2023-08-08T23:21:51;1.97;;;1.87;;
7883;SDS011;3987;51.458;7.238;2023-08-08T23:37:09;1.53;;;1.47;;
7883;SDS011;3987;51.458;7.238;2023-08-08T23:52:10;2.07;;;2.07;;
